sensor_id;sensor_type;location;lat;lon;timestamp;pressure;altitude;pressure_sealevel;temperature;humidity
75767;BME280;64378;55.596;13.014;2023-01-13T00:01:05;99594.22;;;19.69;45.58
75767;BME280;64378;55.596;13.014;2023-01-13T00:03:31;99580.00;;;19.67;45.54
75767;BME280;64378;55.596;13.014;2023-01-13T00:05:58;99562.78;;;19.66;45.72
75767;BME280;64378;55.596;13.014;2023-01-13T00:08:24;99546.38;;;19.66;45.63
75767;BME280;64378;55.596;13.014;2023-01-13T00:10:49;99542.53;;;19.67;45.54
75767;BME280;64378;55.596;13.014;2023-01-13T00:13:15;99546.38;;;19.66;45.63
75767;BME280;64378;55.596;13.014;2023-01-13T00:15:40;99542.78;;;19.66;45.61
75767;BME280;64378;55.596;13.014;2023-01-13T00:18:06;99545.53;;;19.66;45.64
75767;BME280;64378;55.596;13.014;2023-01-13T00:20:31;99548.25;;;19.66;45.75
75767;BME280;64378;55.596;13.014;2023-01-13T00:22:57;99545.53;;;19.66;45.68
75767;BME280;64378;55.596;13.014;2023-01-13T00:25:24;99535.41;;;19.66;45.67
75767;BME280;64378;55.596;13.014;2023-01-13T00:27:49;99531.84;;;19.66;45.83
75767;BME280;64378;55.596;13.014;2023-01-13T00:30:15;99530.75;;;19.67;45.85
75767;BME280;64378;55.596;13.014;2023-01-13T00:32:40;99517.38;;;19.65;46.01
75767;BME280;64378;55.596;13.014;2023-01-13T00:35:06;99516.25;;;19.66;45.87
75767;BME280;64378;55.596;13.014;2023-01-13T00:37:34;99517.06;;;19.67;46.04
75767;BME280;64378;55.596;13.014;2023-01-13T00:40:00;99509.97;;;19.66;45.78
75767;BME280;64378;55.596;13.014;2023-01-13T00:42:26;99502.84;;;19.65;45.72
75767;BME280;64378;55.596;13.014;2023-01-13T00:45:10;99501.75;;;19.66;45.81
75767;BME280;64378;55.596;13.014;2023-01-13T00:47:35;99500.94;;;19.65;46.02
75767;BME280;64378;55.596;13.014;2023-01-13T00:50:00;99491.63;;;19.66;46.02
75767;BME280;64378;55.596;13.014;2023-01-13T00:52:26;99497.91;;;19.67;45.90
75767;BME280;64378;55.596;13.014;2023-01-13T00:54:51;99489.69;;;19.67;45.76
75767;BME280;64378;55.596;13.014;2023-01-13T00:57:17;99487.78;;;19.67;45.88
75767;BME280;64378;55.596;13.014;2023-01-13T00:59:43;99491.31;;;19.68;45.92
75767;BME280;64378;55.596;13.014;2023-01-13T01:02:09;99491.63;;;19.66;45.92
75767;BME280;64378;55.596;13.014;2023-01-13T01:04:34;99490.53;;;19.67;45.87
75767;BME280;64378;55.596;13.014;2023-01-13T01:07:00;99480.38;;;19.68;45.90
75767;BME280;64378;55.596;13.014;2023-01-13T01:09:25;99486.69;;;19.68;45.71
75767;BME280;64378;55.596;13.014;2023-01-13T01:11:57;99484.75;;;19.69;45.99
75767;BME280;64378;55.596;13.014;2023-01-13T01:14:23;99473.81;;;19.69;46.04
75767;BME280;64378;55.596;13.014;2023-01-13T01:16:48;99473.00;;;19.68;45.95
75767;BME280;64378;55.596;13.014;2023-01-13T01:19:13;99475.44;;;19.70;45.95
75767;BME280;64378;55.596;13.014;2023-01-13T01:21:39;99464.50;;;19.70;46.16
75767;BME280;64378;55.596;13.014;2023-01-13T01:24:04;99468.31;;;19.69;45.89
75767;BME280;64378;55.596;13.014;2023-01-13T01:26:30;99466.41;;;19.69;46.14
75767;BME280;64378;55.596;13.014;2023-01-13T01:28:56;99471.91;;;19.69;46.21
75767;BME280;64378;55.596;13.014;2023-01-13T01:31:26;99475.44;;;19.70;45.95
75767;BME280;64378;55.596;13.014;2023-01-13T01:33:53;99463.69;;;19.69;45.94
75767;BME280;64378;55.596;13.014;2023-01-13T01:36:20;99466.41;;;19.69;46.04
75767;BME280;64378;55.596;13.014;2023-01-13T01:38:46;99490.75;;;19.71;46.20
75767;BME280;64378;55.596;13.014;2023-01-13T01:41:15;99475.44;;;19.70;46.13
75767;BME280;64378;55.596;13.014;2023-01-13T01:43:59;99482.00;;;19.69;46.27
75767;BME280;64378;55.596;13.014;2023-01-13T01:49:31;99486.09;;;19.71;46.00
75767;BME280;64378;55.596;13.014;2023-01-13T01:52:01;99487.22;;;19.70;46.06
75767;BME280;64378;55.596;13.014;2023-01-13T01:54:41;99490.75;;;19.71;46.29
75767;BME280;64378;55.596;13.014;2023-01-13T01:57:10;99489.66;;;19.72;46.00
75767;BME280;64378;55.596;13.014;2023-01-13T01:59:39;99489.66;;;19.72;46.05
75767;BME280;64378;55.596;13.014;2023-01-13T02:02:04;99475.44;;;19.70;46.15
75767;BME280;64378;55.596;13.014;2023-01-13T02:04:33;99471.59;;;19.71;46.04
75767;BME280;64378;55.596;13.014;2023-01-13T02:07:01;99474.63;;;19.69;46.17
75767;BME280;64378;55.596;13.014;2023-01-13T02:09:28;99492.38;;;19.72;46.13
75767;BME280;64378;55.596;13.014;2023-01-13T02:11:54;99489.94;;;19.70;46.25
75767;BME280;64378;55.596;13.014;2023-01-13T02:14:40;99506.38;;;19.70;46.11
75767;BME280;64378;55.596;13.014;2023-01-13T02:17:26;99490.75;;;19.71;46.08
75767;BME280;64378;55.596;13.014;2023-01-13T02:20:27;99508.00;;;19.71;45.97
75767;BME280;64378;55.596;13.014;2023-01-13T02:32:18;99508.00;;;19.71;46.00
75767;BME280;64378;55.596;13.014;2023-01-13T02:36:00;99508.00;;;19.71;45.97
75767;BME280;64378;55.596;13.014;2023-01-13T02:37:53;99500.59;;;19.72;45.87
75767;BME280;64378;55.596;13.014;2023-01-13T02:40:30;99504.44;;;19.71;45.71
75767;BME280;64378;55.596;13.014;2023-01-13T02:46:25;99484.47;;;19.70;45.96
75767;BME280;64378;55.596;13.014;2023-01-13T02:48:53;99491.56;;;19.71;45.85
75767;BME280;64378;55.596;13.014;2023-01-13T02:51:23;99505.25;;;19.71;45.93
75767;BME280;64378;55.596;13.014;2023-01-13T02:53:56;99504.44;;;19.71;45.88
75767;BME280;64378;55.596;13.014;2023-01-13T02:56:23;99489.66;;;19.72;45.74
75767;BME280;64378;55.596;13.014;2023-01-13T02:58:52;99493.47;;;19.71;45.77
75767;BME280;64378;55.596;13.014;2023-01-13T03:01:20;99511.84;;;19.70;45.69
75767;BME280;64378;55.596;13.014;2023-01-13T03:03:45;99508.28;;;19.70;45.93
75767;BME280;64378;55.596;13.014;2023-01-13T03:09:05;99509.09;;;19.70;45.63
75767;BME280;64378;55.596;13.014;2023-01-13T03:12:25;99511.00;;;19.70;45.76
75767;BME280;64378;55.596;13.014;2023-01-13T03:14:41;99517.31;;;19.70;45.55
75767;BME280;64378;55.596;13.014;2023-01-13T03:17:19;99513.75;;;19.70;45.62
75767;BME280;64378;55.596;13.014;2023-01-13T03:20:07;99512.63;;;19.71;45.69
75767;BME280;64378;55.596;13.014;2023-01-13T03:22:46;99515.69;;;19.69;45.45
75767;BME280;64378;55.596;13.014;2023-01-13T03:25:39;99513.75;;;19.70;45.50
75767;BME280;64378;55.596;13.014;2023-01-13T03:28:34;99518.41;;;19.69;45.46
75767;BME280;64378;55.596;13.014;2023-01-13T03:31:06;99514.84;;;19.69;45.35
75767;BME280;64378;55.596;13.014;2023-01-13T03:33:55;99505.00;;;19.68;45.31
75767;BME280;64378;55.596;13.014;2023-01-13T03:36:25;99503.91;;;19.69;45.25
75767;BME280;64378;55.596;13.014;2023-01-13T03:38:56;99503.09;;;19.68;45.43
75767;BME280;64378;55.596;13.014;2023-01-13T03:41:48;99511.59;;;19.67;45.15
75767;BME280;64378;55.596;13.014;2023-01-13T03:44:30;99520.31;;;19.69;45.35
75767;BME280;64378;55.596;13.014;2023-01-13T03:52:49;99531.56;;;19.67;45.15
75767;BME280;64378;55.596;13.014;2023-01-13T03:55:19;99539.78;;;19.67;45.17
75767;BME280;64378;55.596;13.014;2023-01-13T03:57:58;99546.06;;;19.68;44.91
75767;BME280;64378;55.596;13.014;2023-01-13T04:00:30;99551.53;;;19.68;45.15
75767;BME280;64378;55.596;13.014;2023-01-13T04:03:10;99557.00;;;19.68;44.91
75767;BME280;64378;55.596;13.014;2023-01-13T04:05:41;99563.59;;;19.67;45.13
75767;BME280;64378;55.596;13.014;2023-01-13T04:08:17;99549.09;;;19.66;45.02
75767;BME280;64378;55.596;13.014;2023-01-13T04:10:57;99557.84;;;19.68;44.85
75767;BME280;64378;55.596;13.014;2023-01-13T04:13:28;99565.22;;;19.68;44.73
75767;BME280;64378;55.596;13.014;2023-01-13T04:15:54;99548.78;;;19.68;44.89
75767;BME280;64378;55.596;13.014;2023-01-13T04:18:25;99539.78;;;19.67;44.86
75767;BME280;64378;55.596;13.014;2023-01-13T04:20:52;99537.84;;;19.68;44.84
75767;BME280;64378;55.596;13.014;2023-01-13T04:23:19;99542.22;;;19.69;44.82
75767;BME280;64378;55.596;13.014;2023-01-13T04:25:45;99534.31;;;19.67;44.92
75767;BME280;64378;55.596;13.014;2023-01-13T04:28:12;99541.69;;;19.67;44.71
75767;BME280;64378;55.596;13.014;2023-01-13T04:30:38;99548.78;;;19.68;44.64
75767;BME280;64378;55.596;13.014;2023-01-13T04:33:03;99542.00;;;19.65;44.69
75767;BME280;64378;55.596;13.014;2023-01-13T04:35:30;99550.19;;;19.65;44.63
75767;BME280;64378;55.596;13.014;2023-01-13T04:37:56;99548.25;;;19.66;44.87
75767;BME280;64378;55.596;13.014;2023-01-13T04:40:24;99553.75;;;19.66;44.65
75767;BME280;64378;55.596;13.014;2023-01-13T04:42:49;99545.53;;;19.66;44.51
75767;BME280;64378;55.596;13.014;2023-01-13T04:45:15;99553.75;;;19.66;44.72
75767;BME280;64378;55.596;13.014;2023-01-13T04:47:40;99560.31;;;19.65;44.40
75767;BME280;64378;55.596;13.014;2023-01-13T04:50:06;99550.19;;;19.65;44.50
75767;BME280;64378;55.596;13.014;2023-01-13T04:52:32;99560.31;;;19.65;44.47
75767;BME280;64378;55.596;13.014;2023-01-13T04:54:57;99559.50;;;19.64;44.53
75767;BME280;64378;55.596;13.014;2023-01-13T04:57:23;99570.47;;;19.64;44.52
75767;BME280;64378;55.596;13.014;2023-01-13T04:59:48;99575.09;;;19.64;44.36
75767;BME280;64378;55.596;13.014;2023-01-13T05:02:13;99573.47;;;19.63;44.33
75767;BME280;64378;55.596;13.014;2023-01-13T05:04:44;99577.03;;;19.63;44.24
75767;BME280;64378;55.596;13.014;2023-01-13T05:07:10;99583.31;;;19.64;44.45
75767;BME280;64378;55.596;13.014;2023-01-13T05:09:36;99579.78;;;19.63;44.30
75767;BME280;64378;55.596;13.014;2023-01-13T05:12:01;99586.34;;;19.63;44.25
75767;BME280;64378;55.596;13.014;2023-01-13T05:14:45;99589.09;;;19.63;44.33
75767;BME280;64378;55.596;13.014;2023-01-13T05:17:30;99591.03;;;19.62;44.27
75767;BME280;64378;55.596;13.014;2023-01-13T05:19:55;99593.75;;;19.62;44.19
75767;BME280;64378;55.596;13.014;2023-01-13T05:22:21;99589.09;;;19.63;44.27
75767;BME280;64378;55.596;13.014;2023-01-13T05:25:07;99584.72;;;19.62;44.22
75767;BME280;64378;55.596;13.014;2023-01-13T05:27:46;99588.28;;;19.62;44.12
75767;BME280;64378;55.596;13.014;2023-01-13T05:30:12;99589.09;;;19.63;43.92
75767;BME280;64378;55.596;13.014;2023-01-13T05:32:37;99593.75;;;19.62;44.18
75767;BME280;64378;55.596;13.014;2023-01-13T05:35:03;99588.28;;;19.62;44.22
75767;BME280;64378;55.596;13.014;2023-01-13T05:37:29;99595.97;;;19.60;44.10
75767;BME280;64378;55.596;13.014;2023-01-13T05:39:54;99600.34;;;19.61;43.85
75767;BME280;64378;55.596;13.014;2023-01-13T05:42:38;99596.50;;;19.62;43.84
75767;BME280;64378;55.596;13.014;2023-01-13T05:45:22;99590.50;;;19.60;44.09
75767;BME280;64378;55.596;13.014;2023-01-13T05:47:48;99596.75;;;19.61;43.89
75767;BME280;64378;55.596;13.014;2023-01-13T05:50:14;99606.06;;;19.60;43.80
75767;BME280;64378;55.596;13.014;2023-01-13T05:52:39;99597.88;;;19.60;43.80
75767;BME280;64378;55.596;13.014;2023-01-13T05:55:05;99607.72;;;19.61;43.88
75767;BME280;64378;55.596;13.014;2023-01-13T05:57:30;99606.38;;;19.58;43.64
75767;BME280;64378;55.596;13.014;2023-01-13T05:59:56;99600.59;;;19.60;43.70
75767;BME280;64378;55.596;13.014;2023-01-13T06:02:21;99602.53;;;19.59;43.64
75767;BME280;64378;55.596;13.014;2023-01-13T06:04:47;99603.66;;;19.58;44.21
75767;BME280;64378;55.596;13.014;2023-01-13T06:07:12;99600.06;;;19.58;43.79
75767;BME280;64378;55.596;13.014;2023-01-13T06:09:37;99589.97;;;19.58;43.87
75767;BME280;64378;55.596;13.014;2023-01-13T06:12:03;99583.66;;;19.58;43.88
75767;BME280;64378;55.596;13.014;2023-01-13T06:14:28;99589.13;;;19.58;43.71
75767;BME280;64378;55.596;13.014;2023-01-13T06:17:12;99582.84;;;19.57;43.83
75767;BME280;64378;55.596;13.014;2023-01-13T06:19:38;99584.50;;;19.58;43.79
75767;BME280;64378;55.596;13.014;2023-01-13T06:22:13;99581.22;;;19.56;43.88
75767;BME280;64378;55.596;13.014;2023-01-13T06:24:39;99580.13;;;19.57;43.80
75767;BME280;64378;55.596;13.014;2023-01-13T06:27:05;99591.06;;;19.57;43.76
75767;BME280;64378;55.596;13.014;2023-01-13T06:29:32;99586.69;;;19.56;43.52
75767;BME280;64378;55.596;13.014;2023-01-13T06:32:00;99597.63;;;19.56;43.67
75767;BME280;64378;55.596;13.014;2023-01-13T06:34:27;99594.06;;;19.56;43.86
75767;BME280;64378;55.596;13.014;2023-01-13T06:36:54;99594.91;;;19.56;43.79
75767;BME280;64378;55.596;13.014;2023-01-13T06:39:23;99606.13;;;19.55;43.82
75767;BME280;64378;55.596;13.014;2023-01-13T06:41:49;99597.91;;;19.55;43.80
75767;BME280;64378;55.596;13.014;2023-01-13T06:44:35;99600.66;;;19.55;43.75
75767;BME280;64378;55.596;13.014;2023-01-13T06:47:00;99608.59;;;19.56;43.82
75767;BME280;64378;55.596;13.014;2023-01-13T06:49:26;99599.00;;;19.54;43.71
75767;BME280;64378;55.596;13.014;2023-01-13T06:51:51;99606.66;;;19.57;43.57
75767;BME280;64378;55.596;13.014;2023-01-13T06:54:16;99603.94;;;19.52;43.60
75767;BME280;64378;55.596;13.014;2023-01-13T06:56:42;99615.44;;;19.54;43.56
75767;BME280;64378;55.596;13.014;2023-01-13T06:59:07;99611.59;;;19.55;43.50
75767;BME280;64378;55.596;13.014;2023-01-13T07:01:33;99615.44;;;19.54;43.74
75767;BME280;64378;55.596;13.014;2023-01-13T07:03:58;99616.25;;;19.54;43.78
75767;BME280;64378;55.596;13.014;2023-01-13T07:06:23;99616.25;;;19.54;43.79
75767;BME280;64378;55.596;13.014;2023-01-13T07:08:49;99608.06;;;19.54;43.76
75767;BME280;64378;55.596;13.014;2023-01-13T07:11:14;99608.06;;;19.54;43.63
75767;BME280;64378;55.596;13.014;2023-01-13T07:13:40;99613.53;;;19.54;43.60
75767;BME280;64378;55.596;13.014;2023-01-13T07:16:24;99613.53;;;19.54;43.56
75767;BME280;64378;55.596;13.014;2023-01-13T07:18:52;99624.47;;;19.54;43.60
75767;BME280;64378;55.596;13.014;2023-01-13T07:21:18;99628.31;;;19.53;43.77
75767;BME280;64378;55.596;13.014;2023-01-13T07:23:46;99625.28;;;19.55;43.84
75767;BME280;64378;55.596;13.014;2023-01-13T07:26:12;99616.53;;;19.53;43.62
75767;BME280;64378;55.596;13.014;2023-01-13T07:28:38;99622.53;;;19.55;43.57
75767;BME280;64378;55.596;13.014;2023-01-13T07:31:04;99620.91;;;19.54;43.49
75767;BME280;64378;55.596;13.014;2023-01-13T07:33:30;99618.16;;;19.54;43.52
75767;BME280;64378;55.596;13.014;2023-01-13T07:36:00;99620.91;;;19.54;43.41
75767;BME280;64378;55.596;13.014;2023-01-13T07:38:27;99625.00;;;19.56;43.40
75767;BME280;64378;55.596;13.014;2023-01-13T07:40:52;99626.91;;;19.56;43.37
75767;BME280;64378;55.596;13.014;2023-01-13T07:43:18;99635.94;;;19.56;43.24
75767;BME280;64378;55.596;13.014;2023-01-13T07:46:01;99623.91;;;19.57;43.48
75767;BME280;64378;55.596;13.014;2023-01-13T07:48:27;99627.44;;;19.58;43.23
75767;BME280;64378;55.596;13.014;2023-01-13T07:50:53;99627.44;;;19.58;43.20
75767;BME280;64378;55.596;13.014;2023-01-13T07:53:22;99630.16;;;19.58;43.26
75767;BME280;64378;55.596;13.014;2023-01-13T07:55:50;99634.28;;;19.60;43.30
75767;BME280;64378;55.596;13.014;2023-01-13T07:58:15;99630.69;;;19.60;43.17
75767;BME280;64378;55.596;13.014;2023-01-13T08:00:40;99631.53;;;19.60;43.23
75767;BME280;64378;55.596;13.014;2023-01-13T08:03:06;99627.97;;;19.60;43.23
75767;BME280;64378;55.596;13.014;2023-01-13T08:05:33;99630.69;;;19.60;43.08
75767;BME280;64378;55.596;13.014;2023-01-13T08:08:00;99637.81;;;19.61;43.28
75767;BME280;64378;55.596;13.014;2023-01-13T08:10:25;99637.00;;;19.60;43.00
75767;BME280;64378;55.596;13.014;2023-01-13T08:12:50;99632.34;;;19.61;43.03
75767;BME280;64378;55.596;13.014;2023-01-13T08:15:34;99638.66;;;19.61;43.08
75767;BME280;64378;55.596;13.014;2023-01-13T08:18:00;99637.53;;;19.62;42.89
75767;BME280;64378;55.596;13.014;2023-01-13T08:20:26;99631.78;;;19.63;42.75
75767;BME280;64378;55.596;13.014;2023-01-13T08:22:56;99635.31;;;19.64;42.92
75767;BME280;64378;55.596;13.014;2023-01-13T08:25:22;99634.50;;;19.63;43.08
75767;BME280;64378;55.596;13.014;2023-01-13T08:27:48;99637.25;;;19.63;42.81
75767;BME280;64378;55.596;13.014;2023-01-13T08:30:15;99645.44;;;19.63;42.95
75767;BME280;64378;55.596;13.014;2023-01-13T08:32:44;99638.88;;;19.64;42.81
75767;BME280;64378;55.596;13.014;2023-01-13T08:35:10;99645.97;;;19.65;42.90
75767;BME280;64378;55.596;13.014;2023-01-13T08:37:36;99648.72;;;19.65;42.82
75767;BME280;64378;55.596;13.014;2023-01-13T08:40:02;99647.88;;;19.65;42.76
75767;BME280;64378;55.596;13.014;2023-01-13T08:42:28;99644.59;;;19.68;42.87
75767;BME280;64378;55.596;13.014;2023-01-13T08:44:55;99639.94;;;19.68;42.61
75767;BME280;64378;55.596;13.014;2023-01-13T08:47:21;99635.28;;;19.69;42.56
75767;BME280;64378;55.596;13.014;2023-01-13T08:49:46;99641.84;;;19.68;42.71
75767;BME280;64378;55.596;13.014;2023-01-13T08:52:12;99637.72;;;19.70;42.59
75767;BME280;64378;55.596;13.014;2023-01-13T08:54:38;99626.47;;;19.72;42.49
75767;BME280;64378;55.596;13.014;2023-01-13T08:57:04;99631.97;;;19.72;42.48
75767;BME280;64378;55.596;13.014;2023-01-13T08:59:30;99630.06;;;19.72;42.60
75767;BME280;64378;55.596;13.014;2023-01-13T09:01:55;99634.13;;;19.75;42.56
75767;BME280;64378;55.596;13.014;2023-01-13T09:04:22;99627.25;;;19.77;42.64
75767;BME280;64378;55.596;13.014;2023-01-13T09:06:49;99630.81;;;19.78;42.45
75767;BME280;64378;55.596;13.014;2023-01-13T09:09:15;99627.78;;;19.79;42.45
75767;BME280;64378;55.596;13.014;2023-01-13T09:11:43;99624.75;;;19.81;42.25
75767;BME280;64378;55.596;13.014;2023-01-13T09:14:31;99624.47;;;19.82;42.55
75767;BME280;64378;55.596;13.014;2023-01-13T09:16:57;99617.88;;;19.83;42.23
75767;BME280;64378;55.596;13.014;2023-01-13T09:19:23;99633.75;;;19.86;42.45
75767;BME280;64378;55.596;13.014;2023-01-13T09:21:48;99636.16;;;19.88;42.29
75767;BME280;64378;55.596;13.014;2023-01-13T09:24:14;99633.16;;;19.89;42.27
75767;BME280;64378;55.596;13.014;2023-01-13T09:26:40;99629.31;;;19.90;42.29
75767;BME280;64378;55.596;13.014;2023-01-13T09:29:05;99642.72;;;19.92;42.42
75767;BME280;64378;55.596;13.014;2023-01-13T09:31:31;99633.91;;;19.95;42.25
75767;BME280;64378;55.596;13.014;2023-01-13T09:34:03;99635.28;;;19.97;42.65
75767;BME280;64378;55.596;13.014;2023-01-13T09:36:48;99626.78;;;19.99;42.23
75767;BME280;64378;55.596;13.014;2023-01-13T09:39:13;99633.31;;;20.03;41.99
75767;BME280;64378;55.596;13.014;2023-01-13T09:41:54;99629.50;;;20.04;42.12
75767;BME280;64378;55.596;13.014;2023-01-13T09:44:53;99636.28;;;20.06;41.83
75767;BME280;64378;55.596;13.014;2023-01-13T09:48:00;99621.50;;;20.07;42.12
75767;BME280;64378;55.596;13.014;2023-01-13T09:53:32;99623.09;;;20.13;42.02
75767;BME280;64378;55.596;13.014;2023-01-13T09:55:59;99623.88;;;20.14;41.74
75767;BME280;64378;55.596;13.014;2023-01-13T09:58:26;99626.34;;;20.15;42.02
75767;BME280;64378;55.596;13.014;2023-01-13T10:03:28;99624.72;;;20.14;41.68
75767;BME280;64378;55.596;13.014;2023-01-13T10:08:37;99629.34;;;20.14;41.94
75767;BME280;64378;55.596;13.014;2023-01-13T10:11:15;99628.88;;;20.12;41.72
75767;BME280;64378;55.596;13.014;2023-01-13T10:14:02;99623.66;;;20.10;41.70
75767;BME280;64378;55.596;13.014;2023-01-13T10:27:15;99621.22;;;20.09;41.94
75767;BME280;64378;55.596;13.014;2023-01-13T10:29:43;99613.53;;;20.11;42.19
75767;BME280;64378;55.596;13.014;2023-01-13T10:32:08;99610.28;;;20.09;42.04
75767;BME280;64378;55.596;13.014;2023-01-13T10:34:44;99610.50;;;20.12;41.83
75767;BME280;64378;55.596;13.014;2023-01-13T10:37:20;99615.41;;;20.15;42.07
75767;BME280;64378;55.596;13.014;2023-01-13T10:39:47;99621.66;;;20.16;42.19
75767;BME280;64378;55.596;13.014;2023-01-13T10:42:14;99609.91;;;20.15;42.16
75767;BME280;64378;55.596;13.014;2023-01-13T10:47:29;99606.34;;;20.15;41.88
75767;BME280;64378;55.596;13.014;2023-01-13T10:52:38;99611.31;;;20.13;41.91
75767;BME280;64378;55.596;13.014;2023-01-13T10:55:33;99605.53;;;20.14;42.09
75767;BME280;64378;55.596;13.014;2023-01-13T10:58:27;99604.13;;;20.17;42.25
75767;BME280;64378;55.596;13.014;2023-01-13T11:01:01;99600.28;;;20.18;42.14
75767;BME280;64378;55.596;13.014;2023-01-13T11:03:37;99595.84;;;20.22;42.26
75767;BME280;64378;55.596;13.014;2023-01-13T11:06:06;99592.00;;;20.23;42.05
75767;BME280;64378;55.596;13.014;2023-01-13T11:08:46;99585.75;;;20.22;42.14
75767;BME280;64378;55.596;13.014;2023-01-13T11:11:48;99586.53;;;20.23;41.93
75767;BME280;64378;55.596;13.014;2023-01-13T11:14:36;99579.72;;;20.20;41.82
75767;BME280;64378;55.596;13.014;2023-01-13T11:17:13;99584.38;;;20.20;42.03
75767;BME280;64378;55.596;13.014;2023-01-13T11:19:46;99589.06;;;20.19;42.01
75767;BME280;64378;55.596;13.014;2023-01-13T11:22:23;99587.41;;;20.18;42.16
75767;BME280;64378;55.596;13.014;2023-01-13T11:24:54;99592.59;;;20.20;41.60
75767;BME280;64378;55.596;13.014;2023-01-13T11:30:24;99584.69;;;20.18;42.05
75767;BME280;64378;55.596;13.014;2023-01-13T11:33:14;99569.34;;;20.17;41.67
75767;BME280;64378;55.596;13.014;2023-01-13T11:35:55;99571.25;;;20.17;41.78
75767;BME280;64378;55.596;13.014;2023-01-13T11:38:36;99576.75;;;20.17;41.73
75767;BME280;64378;55.596;13.014;2023-01-13T11:41:25;99585.25;;;20.15;41.71
75767;BME280;64378;55.596;13.014;2023-01-13T11:46:39;99568.84;;;20.15;41.54
75767;BME280;64378;55.596;13.014;2023-01-13T11:49:05;99569.94;;;20.14;41.83
75767;BME280;64378;55.596;13.014;2023-01-13T11:51:40;99566.38;;;20.14;41.76
75767;BME280;64378;55.596;13.014;2023-01-13T11:54:35;99556.56;;;20.13;41.75
75767;BME280;64378;55.596;13.014;2023-01-13T12:07:46;99557.13;;;20.10;41.66
75767;BME280;64378;55.596;13.014;2023-01-13T12:10:36;99563.41;;;20.10;41.35
75767;BME280;64378;55.596;13.014;2023-01-13T12:13:18;99552.75;;;20.09;41.46
75767;BME280;64378;55.596;13.014;2023-01-13T12:21:29;99549.19;;;20.08;41.46
75767;BME280;64378;55.596;13.014;2023-01-13T12:26:28;99549.50;;;20.07;41.41
75767;BME280;64378;55.596;13.014;2023-01-13T12:29:01;99545.13;;;20.06;41.24
75767;BME280;64378;55.596;13.014;2023-01-13T12:31:27;99542.09;;;20.07;41.38
75767;BME280;64378;55.596;13.014;2023-01-13T12:42:19;99544.59;;;20.04;41.29
75767;BME280;64378;55.596;13.014;2023-01-13T12:47:41;99554.44;;;20.05;41.40
75767;BME280;64378;55.596;13.014;2023-01-13T12:50:35;99545.13;;;20.06;41.24
75767;BME280;64378;55.596;13.014;2023-01-13T12:53:31;99544.59;;;20.04;41.14
75767;BME280;64378;55.596;13.014;2023-01-13T12:58:52;99550.06;;;20.04;40.98
75767;BME280;64378;55.596;13.014;2023-01-13T13:01:34;99541.03;;;20.03;41.22
75767;BME280;64378;55.596;13.014;2023-01-13T13:04:11;99543.78;;;20.03;40.98
75767;BME280;64378;55.596;13.014;2023-01-13T13:06:40;99545.19;;;20.01;41.18
75767;BME280;64378;55.596;13.014;2023-01-13T13:09:34;99536.66;;;20.02;41.15
75767;BME280;64378;55.596;13.014;2023-01-13T13:12:33;99538.59;;;20.02;41.20
75767;BME280;64378;55.596;13.014;2023-01-13T13:15:35;99526.81;;;20.01;41.25
75767;BME280;64378;55.596;13.014;2023-01-13T13:23:28;99542.13;;;20.02;41.00
75767;BME280;64378;55.596;13.014;2023-01-13T13:32:17;99551.75;;;20.00;41.04
75767;BME280;64378;55.596;13.014;2023-01-13T13:37:45;99538.06;;;20.00;41.08
75767;BME280;64378;55.596;13.014;2023-01-13T13:40:39;99533.44;;;20.00;40.97
75767;BME280;64378;55.596;13.014;2023-01-13T13:43:24;99539.19;;;19.99;40.87
75767;BME280;64378;55.596;13.014;2023-01-13T13:46:22;99540.56;;;19.96;40.83
75767;BME280;64378;55.596;13.014;2023-01-13T13:49:06;99534.81;;;19.98;40.93
75767;BME280;64378;55.596;13.014;2023-01-13T13:51:35;99535.88;;;19.97;40.95
75767;BME280;64378;55.596;13.014;2023-01-13T13:54:05;99531.50;;;19.96;40.92
75767;BME280;64378;55.596;13.014;2023-01-13T13:56:37;99533.97;;;19.97;41.00
75767;BME280;64378;55.596;13.014;2023-01-13T13:59:09;99536.72;;;19.97;40.79
75767;BME280;64378;55.596;13.014;2023-01-13T14:01:36;99539.44;;;19.97;40.83
75767;BME280;64378;55.596;13.014;2023-01-13T14:06:30;99525.75;;;19.97;40.99
75767;BME280;64378;55.596;13.014;2023-01-13T14:08:57;99526.88;;;19.96;40.84
75767;BME280;64378;55.596;13.014;2023-01-13T14:11:27;99529.59;;;19.96;40.78
75767;BME280;64378;55.596;13.014;2023-01-13T14:14:13;99530.41;;;19.97;40.87
75767;BME280;64378;55.596;13.014;2023-01-13T14:16:41;99524.94;;;19.97;41.02
75767;BME280;64378;55.596;13.014;2023-01-13T14:19:24;99530.41;;;19.97;40.95
75767;BME280;64378;55.596;13.014;2023-01-13T14:21:50;99530.41;;;19.97;41.01
75767;BME280;64378;55.596;13.014;2023-01-13T14:24:15;99533.44;;;19.95;40.75
75767;BME280;64378;55.596;13.014;2023-01-13T14:26:42;99537.28;;;19.94;40.74
75767;BME280;64378;55.596;13.014;2023-01-13T14:29:21;99518.13;;;19.94;41.11
75767;BME280;64378;55.596;13.014;2023-01-13T14:31:49;99525.50;;;19.94;40.83
75767;BME280;64378;55.596;13.014;2023-01-13T14:34:16;99526.34;;;19.94;40.97
75767;BME280;64378;55.596;13.014;2023-01-13T14:36:42;99529.09;;;19.94;40.78
75767;BME280;64378;55.596;13.014;2023-01-13T14:46:53;99529.88;;;19.95;40.93
75767;BME280;64378;55.596;13.014;2023-01-13T14:49:40;99530.19;;;19.93;40.97
75767;BME280;64378;55.596;13.014;2023-01-13T14:59:48;99519.50;;;19.92;40.85
75767;BME280;64378;55.596;13.014;2023-01-13T15:02:35;99525.81;;;19.92;40.69
75767;BME280;64378;55.596;13.014;2023-01-13T15:07:53;99519.22;;;19.93;40.69
75767;BME280;64378;55.596;13.014;2023-01-13T15:10:21;99517.59;;;19.92;40.93
75767;BME280;64378;55.596;13.014;2023-01-13T15:12:53;99515.13;;;19.91;41.03
75767;BME280;64378;55.596;13.014;2023-01-13T15:15:21;99507.75;;;19.91;40.95